NCAR-RAP Real-Time Weather Data

Output produced by METARs form (20 February 2019  18:00 UTC)
found at http://weather.rap.ucar.edu/surface/
 
RJDT 201100Z 31003KT 290V350 9999 FEW025 BKN/// 06/02 Q1023
RJDT 201000Z 29002KT 9999 FEW025 BKN/// 07/02 Q1023
RJDT 200900Z 28004KT 9999 FEW025 BKN/// 07/01 Q1022
RJDT 200800Z 29005KT 220V350 9999 FEW025 SCT/// 08/02 Q1022
RJDT 200700Z 30008KT 230V340 9999 FEW025 09/01 Q1022
RJDT 200600Z 30007KT 250V320 9999 BKN030 09/02 Q1022
RJDT 200500Z 30008KT 250V330 9999 BKN030 09/01 Q1022
RJDT 200400Z 27012KT 220V290 9999 FEW025 SCT030 BKN/// 09/01 Q1022
RJDT 200300Z 31010KT 240V350 9999 FEW025 SCT030 08/01 Q1023
RJDT 200200Z 28006KT 230V330 9999 FEW020 BKN025 07/01 Q1023
RJDT 200100Z 32010KT 250V350 9999 FEW020 BKN025 07/02 Q1022
RJDT 200000Z 32008KT 280V350 9999 FEW015 BKN020 07/02 Q1022
RJDT 192300Z 33007KT 280V360 9999 FEW015 BKN020 07/03 Q1021
RJDT 192230Z 34011KT 310V020 9999 FEW015 BKN020 07/03 Q1021
RJDT 191100Z 27010KT 230V300 9999 FEW010 SCT015 BKN020 11/09 Q1016
RJDT 191000Z 24003KT 170V320 9999 FEW007 SCT010 BKN015 11/10 Q1015
RJDT 190900Z 27006KT 230V300 9999 FEW005 SCT008 BKN010 11/10 Q1014
RJDT 190828Z 27007KT 220V310 9999 -RA FEW005 SCT008 BKN009 12/10 Q1014 RMK 1ST005 4ST008 6ST009 A2997
RJDT 190815Z 29006KT 210V010 7000 -RA FEW003 SCT005 BKN006 11/11 Q1014 RMK 1ST003 4ST005 6ST006 A2996
RJDT 190800Z VRB06KT 4000 -RA BR FEW002 SCT004 BKN005 11/11 Q1014
RJDT 190743Z 30006KT 270V340 4500 -RA BR FEW003 SCT005 BKN006 12/11 Q1014 RMK 1ST003 4ST005 6ST006 A2995
RJDT 190722Z 30005KT 250V350 7000 -RA FEW005 SCT007 BKN009 12/11 Q1014 RMK 1ST005 4ST007 6ST009 A2994
RJDT 190700Z 28004KT 230V330 9999 FEW006 SCT008 BKN010 12/11 Q1013
RJDT 190612Z 33009KT 290V360 9999 FEW003 SCT007 BKN010 12/12 Q1012 RMK 1ST003 3ST007 5ST010 A2990
RJDT 190600Z 32009KT 270V340 9999 FEW003 SCT005 BKN006 12/12 Q1012
RJDT 190544Z 31008KT 260V350 9999 FEW003 SCT005 BKN006 12/12 Q1012 RMK 1ST003 4ST005 6ST006 A2989
RJDT 190528Z 29005KT 200V350 9999 FEW004 SCT006 BKN009 12/12 Q1012 RMK 1ST004 4ST006 6ST009 A2988
RJDT 190500Z 34004KT 9999 FEW002 SCT006 BKN008 13/12 Q1011
RJDT 190408Z 35007KT 320V040 9999 -RA FEW000 SCT004 BKN006 13/12 Q1011 RMK 1ST000 3ST004 6ST006 A2985
RJDT 190400Z 36006KT 310V050 9999 -RA FEW000 SCT003 BKN004 12/12 Q1011
RJDT 190344Z 34008KT 290V360 5000 -RA BR FEW000 SCT002 BKN003 13/12 Q1011 RMK 1ST000 3ST002 5ST003 A2985
RJDT 190340Z 34007KT 320V020 3500 -RA BR FEW000 SCT002 BKN003 13/12 Q1011 RMK 1ST000 3ST002 5ST003 A2986
RJDT 190333Z 34007KT 320V020 2000 -RA BR FEW000 SCT002 BKN003 13/13 Q1011 RMK 1ST000 3ST002 7ST003 A2986
RJDT 190321Z 33007KT 1500 -RA BR FEW000 SCT002 BKN003 12/12 Q1011 RMK 1ST000 3ST002 7ST003 A2986
RJDT 190300Z 33005KT 1000 -RA BR FEW000 SCT002 BKN003 13/12 Q1011
RJDT 190229Z VRB02KT 3000 -RA BR FEW002 BKN004 BKN007 12/12 Q1011 RMK 1ST002 5ST004 7ST007 A2986
RJDT 190221Z VRB02KT 3000 -RA BR FEW002 BKN005 BKN008 12/12 Q1011 RMK 1ST002 5ST005 7ST008 A2986
RJDT 190215Z VRB02KT 4000 -RA BR FEW002 BKN005 BKN008 12/12 Q1011 RMK 1ST002 5ST005 7ST008 A2987
RJDT 190200Z 11006KT 070V210 9999 -RA FEW002 BKN005 BKN008 12/12 Q1011
RJDT 190100Z 09005KT 050V170 5000 -RA BR FEW002 BKN005 11/11 Q1012
RJDT 190040Z 08005KT 5000 -RA BR FEW002 BKN005 11/11 Q1012 RMK 1ST002 7ST005 A2991
RJDT 190034Z 08004KT 040V140 4000 RA BR FEW002 BKN005 11/11 Q1013 RMK 1ST002 7ST005 A2992
RJDT 190023Z 08004KT 030V110 3000 RA BR FEW002 BKN005 11/11 Q1013 RMK 1ST002 7ST005 A2992
RJDT 190000Z 09007KT 050V140 3000 -RA BR FEW002 BKN005 BKN010 11/11 Q1012
RJDT 182338Z 08007KT 030V150 3500 -RA BR FEW002 BKN005 BKN010 11/11 Q1012 RMK 1ST002 5ST005 7ST010 A2990
RJDT 182330Z 10009KT 070V150 4000 RA BR FEW002 BKN005 BKN010 11/11 Q1012 RMK 1ST002 5ST005 7ST010 A2991
RJDT 182322Z 09008KT 2500 RA BR FEW002 BKN005 BKN010 11/11 Q1012 RMK 1ST002 5ST005 7ST010 A2991
RJDT 182307Z 11011KT 2000 +RA BR FEW002 BKN005 11/11 Q1013 RMK 2ST002 7ST005 A2992
RJDT 182300Z 11013KT 2500 RA BR FEW002 BKN005 11/10 Q1013
RJDT 182230Z 11015KT 3000 RA BR FEW003 BKN008 BKN015 11/10 Q1014
RJDT 182205Z 11014KT 4000 -RA BR FEW003 SCT005 BKN008 10/10 Q1014 RMK 1ST003 4ST005 7ST008 A2995
RJDT 181100Z 29001KT 9999 -RA NSC 09/02 Q1023
RJDT 181000Z VRB01KT CAVOK 09/00 Q1023
RJDT 180900Z 25002KT 9999 -RA NSC 09/01 Q1023
RJDT 180800Z VRB02KT 9999 -RA NSC 09/00 Q1023
RJDT 180700Z VRB02KT CAVOK 10/M00 Q1022